createdAt,value
2019-01-25T00:00:40.133Z,39.07
2019-01-25T00:03:10.342Z,35.07
2019-01-25T00:05:39.882Z,36.13
2019-01-25T00:08:09.241Z,43.03
2019-01-25T00:10:38.577Z,41.37
2019-01-25T00:13:07.914Z,41.40
2019-01-25T00:15:37.277Z,41.70
2019-01-25T00:18:07.038Z,38.13
2019-01-25T00:20:36.412Z,36.63
2019-01-25T00:23:05.777Z,35.40
2019-01-25T00:25:35.105Z,35.90
2019-01-25T00:28:04.683Z,34.60
2019-01-25T00:30:34.045Z,36.13
2019-01-25T00:33:03.384Z,41.20
2019-01-25T00:35:32.713Z,37.13
2019-01-25T00:38:02.083Z,37.93
2019-01-25T00:40:31.418Z,33.40
2019-01-25T00:43:00.744Z,36.97
2019-01-25T00:45:30.118Z,35.70
2019-01-25T00:47:59.453Z,30.43
2019-01-25T00:50:28.790Z,35.63
2019-01-25T00:52:58.153Z,35.70
2019-01-25T00:55:27.485Z,35.23
2019-01-25T00:57:56.826Z,34.97
2019-01-25T01:00:27.246Z,35.97
2019-01-25T01:02:56.579Z,31.97
2019-01-25T01:05:25.982Z,34.13
2019-01-25T01:07:55.351Z,31.80
2019-01-25T01:10:24.763Z,32.57
2019-01-25T01:12:54.081Z,31.97
2019-01-25T01:15:23.514Z,28.67
2019-01-25T01:17:52.858Z,32.00
2019-01-25T01:20:22.195Z,33.90
2019-01-25T01:22:51.561Z,33.97
2019-01-25T01:25:20.911Z,30.70
2019-01-25T01:27:50.245Z,30.37
2019-01-25T01:30:21.651Z,27.83
2019-01-25T01:32:51.290Z,29.60
2019-01-25T01:35:20.657Z,29.97
2019-01-25T01:37:50.424Z,30.37
2019-01-25T01:40:22.325Z,34.87
2019-01-25T01:42:52.498Z,38.13
2019-01-25T01:45:21.998Z,34.80
2019-01-25T01:47:51.401Z,38.70
2019-01-25T01:50:20.901Z,34.63
2019-01-25T01:52:50.269Z,33.53
2019-01-25T01:55:19.606Z,42.77
2019-01-25T01:57:48.937Z,38.27
2019-01-25T02:00:22.942Z,36.90
2019-01-25T02:02:52.451Z,36.90
2019-01-25T02:05:21.795Z,36.67
2019-01-25T02:07:51.225Z,35.77
2019-01-25T02:10:29.321Z,31.97
2019-01-25T02:12:54.172Z,34.57
2019-01-25T02:15:23.769Z,32.70
2019-01-25T02:17:54.173Z,30.70
2019-01-25T02:20:25.851Z,33.87
2019-01-25T02:22:55.355Z,35.27
2019-01-25T02:25:24.756Z,33.40
2019-01-25T02:27:54.149Z,37.43
2019-01-25T02:30:25.363Z,39.97
2019-01-25T02:32:54.689Z,39.97
2019-01-25T02:35:24.107Z,39.07
2019-01-25T02:37:53.533Z,40.13
2019-01-25T02:40:24.018Z,35.97
2019-01-25T02:42:53.577Z,35.23
2019-01-25T02:45:22.948Z,38.33
2019-01-25T02:47:52.280Z,38.60
2019-01-25T02:50:21.620Z,35.93
2019-01-25T02:52:50.986Z,42.07
2019-01-25T02:55:20.390Z,38.17
2019-01-25T02:57:49.717Z,38.30
2019-01-25T03:00:21.485Z,39.10
2019-01-25T03:02:50.965Z,39.27
2019-01-25T03:05:21.810Z,42.83
2019-01-25T03:07:51.570Z,42.70
2019-01-25T03:10:28.624Z,38.43
2019-01-25T03:12:53.360Z,40.20
2019-01-25T03:15:24.669Z,39.10
2019-01-25T03:17:54.234Z,42.43
2019-01-25T03:20:23.737Z,40.93
2019-01-25T03:22:53.110Z,40.67
2019-01-25T03:25:24.480Z,36.50
2019-01-25T03:27:53.904Z,41.20
2019-01-25T03:30:24.923Z,38.83
2019-01-25T03:32:54.349Z,37.37
2019-01-25T03:35:25.807Z,41.17
2019-01-25T03:37:55.434Z,39.70
2019-01-25T03:40:26.813Z,38.60
2019-01-25T03:42:56.281Z,38.50
2019-01-25T03:45:26.293Z,39.47
2019-01-25T03:47:55.792Z,37.97
2019-01-25T03:50:27.199Z,40.77
2019-01-25T03:52:56.764Z,41.47
2019-01-25T03:55:26.608Z,36.80
2019-01-25T03:57:55.973Z,35.60
2019-01-25T04:00:27.373Z,37.37
2019-01-25T04:02:56.704Z,36.20
2019-01-25T04:05:26.036Z,35.00
2019-01-25T04:07:55.474Z,38.70
2019-01-25T04:10:29.337Z,37.57
2019-01-25T04:12:58.742Z,40.33
2019-01-25T04:15:30.423Z,40.47
2019-01-25T04:17:59.754Z,40.23
2019-01-25T04:20:29.537Z,36.77
2019-01-25T04:22:58.907Z,39.30
2019-01-25T04:25:28.233Z,42.23
2019-01-25T04:27:57.561Z,42.83
2019-01-25T04:30:28.761Z,45.53
2019-01-25T04:32:58.093Z,40.53
2019-01-25T04:35:27.435Z,35.50
2019-01-25T04:37:56.943Z,39.63
2019-01-25T04:40:26.273Z,41.33
2019-01-25T04:42:55.608Z,38.30
2019-01-25T04:45:24.962Z,38.17
2019-01-25T04:47:54.304Z,44.37
2019-01-25T04:50:24.469Z,41.63
2019-01-25T04:52:54.174Z,38.57
2019-01-25T04:55:26.028Z,40.97
2019-01-25T04:57:58.057Z,37.27
2019-01-25T05:00:27.424Z,34.90
2019-01-25T05:03:00.597Z,30.97
2019-01-25T05:05:30.182Z,35.37
2019-01-25T05:08:10.539Z,35.30
2019-01-25T05:10:39.906Z,33.80
2019-01-25T05:13:10.154Z,37.70
2019-01-25T05:15:39.526Z,34.50
2019-01-25T05:18:09.357Z,38.57
2019-01-25T05:20:38.803Z,37.10
2019-01-25T05:23:09.010Z,38.27
2019-01-25T05:25:38.511Z,37.37
2019-01-25T05:28:10.537Z,66.17
2019-01-25T05:30:40.298Z,36.90
2019-01-25T05:33:09.682Z,37.07
2019-01-25T05:35:39.014Z,34.40
2019-01-25T05:38:08.383Z,37.40
2019-01-25T05:40:37.717Z,36.97
2019-01-25T05:43:07.049Z,40.57
2019-01-25T05:45:41.129Z,33.60
2019-01-25T05:48:10.559Z,34.73
2019-01-25T05:50:39.975Z,39.63
2019-01-25T05:53:09.487Z,38.70
2019-01-25T05:55:38.821Z,36.33
2019-01-25T05:58:09.816Z,35.90
2019-01-25T06:00:41.252Z,39.27
2019-01-25T06:03:12.618Z,41.63
2019-01-25T06:05:42.389Z,36.60
2019-01-25T06:08:29.306Z,44.23
2019-01-25T06:11:00.882Z,39.20
2019-01-25T06:13:35.176Z,45.57
2019-01-25T06:16:04.914Z,43.47
2019-01-25T06:18:34.246Z,45.87
2019-01-25T06:21:03.887Z,40.30
2019-01-25T06:23:33.285Z,48.23
2019-01-25T06:26:02.794Z,49.03
2019-01-25T06:28:32.125Z,50.23
2019-01-25T06:31:01.625Z,48.27
2019-01-25T06:33:31.024Z,44.00
2019-01-25T06:36:00.364Z,51.20
2019-01-25T06:38:29.797Z,44.43
2019-01-25T06:40:59.301Z,42.83
2019-01-25T06:43:28.637Z,43.40
2019-01-25T06:45:57.995Z,46.73
2019-01-25T06:48:27.327Z,46.03
2019-01-25T06:50:56.665Z,38.93
2019-01-25T06:53:26.034Z,42.57
2019-01-25T06:55:55.365Z,40.37
2019-01-25T06:58:26.339Z,43.17
2019-01-25T07:00:57.336Z,39.77
2019-01-25T07:03:26.722Z,43.80
2019-01-25T07:05:56.089Z,42.27
2019-01-25T07:08:25.446Z,42.43
2019-01-25T07:10:54.790Z,41.50
2019-01-25T07:13:24.113Z,42.23
2019-01-25T07:15:53.481Z,44.47
2019-01-25T07:18:22.821Z,43.97
2019-01-25T07:20:52.157Z,40.40
2019-01-25T07:23:21.521Z,41.37
2019-01-25T07:25:50.530Z,42.40
2019-01-25T07:28:19.773Z,42.10
2019-01-25T07:30:49.146Z,40.00
2019-01-25T07:33:18.545Z,46.10
2019-01-25T07:35:48.020Z,49.90
2019-01-25T07:38:17.357Z,47.07
2019-01-25T07:40:46.694Z,50.07
2019-01-25T07:43:16.072Z,78.43
2019-01-25T07:45:45.650Z,46.37
2019-01-25T07:48:14.982Z,43.40
2019-01-25T07:50:44.317Z,46.97
2019-01-25T07:53:13.682Z,49.30
2019-01-25T07:55:42.681Z,53.13
2019-01-25T07:58:11.926Z,87.67
2019-01-25T08:00:41.291Z,56.33
2019-01-25T08:03:10.741Z,44.87
2019-01-25T08:05:40.147Z,47.47
2019-01-25T08:08:09.536Z,71.47
2019-01-25T08:10:38.870Z,49.17
2019-01-25T08:13:08.197Z,49.03
2019-01-25T08:15:37.889Z,36.60
2019-01-25T08:18:07.267Z,39.57
2019-01-25T08:20:36.602Z,41.00
2019-01-25T08:23:05.989Z,39.07
2019-01-25T08:25:35.603Z,36.70
2019-01-25T08:28:05.070Z,37.30
2019-01-25T08:30:34.441Z,42.30
2019-01-25T08:33:03.891Z,41.50
2019-01-25T08:35:33.258Z,44.30
2019-01-25T08:38:02.624Z,45.43
2019-01-25T08:40:31.958Z,48.63
2019-01-25T08:43:01.412Z,45.67
2019-01-25T08:45:30.806Z,45.30
2019-01-25T08:48:00.161Z,46.60
2019-01-25T08:50:29.553Z,44.13
2019-01-25T08:52:58.920Z,45.83
2019-01-25T08:55:28.262Z,49.57
2019-01-25T08:57:57.598Z,50.10
2019-01-25T09:00:27.265Z,40.77
2019-01-25T09:02:56.678Z,43.03
2019-01-25T09:05:26.019Z,44.87
2019-01-25T09:07:55.381Z,40.40
2019-01-25T09:10:26.074Z,38.83
2019-01-25T09:12:55.078Z,41.00
2019-01-25T09:15:27.158Z,42.77
2019-01-25T09:17:56.480Z,36.23
2019-01-25T09:20:25.891Z,40.80
2019-01-25T09:22:55.258Z,40.37
2019-01-25T09:25:24.600Z,40.50
2019-01-25T09:27:54.024Z,38.60
2019-01-25T09:30:29.190Z,38.77
2019-01-25T09:32:58.608Z,35.60
2019-01-25T09:35:27.926Z,36.60
2019-01-25T09:37:57.309Z,37.63
2019-01-25T09:40:27.612Z,37.17
2019-01-25T09:42:56.957Z,35.47
2019-01-25T09:45:26.296Z,35.63
2019-01-25T09:47:55.629Z,33.63
2019-01-25T09:50:24.966Z,36.13
2019-01-25T09:52:54.324Z,39.13
2019-01-25T09:55:25.189Z,41.33
2019-01-25T09:57:57.529Z,39.90
2019-01-25T10:00:45.022Z,39.30
2019-01-25T10:03:14.406Z,34.33
2019-01-25T10:05:43.742Z,44.07
2019-01-25T10:08:13.097Z,45.27
2019-01-25T10:10:42.430Z,42.30
2019-01-25T10:13:11.761Z,39.07
2019-01-25T10:15:41.129Z,43.37
2019-01-25T10:18:10.480Z,45.93
2019-01-25T10:20:39.805Z,49.30
2019-01-25T10:23:09.169Z,40.50
2019-01-25T10:25:38.574Z,44.37
2019-01-25T10:28:07.901Z,45.37
2019-01-25T10:30:37.265Z,40.23
2019-01-25T10:33:06.608Z,39.57
2019-01-25T10:35:36.019Z,39.30
2019-01-25T10:38:05.383Z,37.63
2019-01-25T10:40:34.710Z,43.50
2019-01-25T10:43:04.217Z,59.40
2019-01-25T10:45:39.198Z,40.83
2019-01-25T10:48:08.973Z,35.63
2019-01-25T10:50:38.304Z,39.07
2019-01-25T10:53:08.506Z,36.00
2019-01-25T10:55:39.106Z,41.77
2019-01-25T10:58:08.898Z,36.47
2019-01-25T11:00:38.265Z,39.37
2019-01-25T11:03:07.630Z,45.57
2019-01-25T11:05:36.953Z,43.50
2019-01-25T11:08:06.318Z,42.57
2019-01-25T11:10:35.663Z,42.20
2019-01-25T11:13:05.174Z,50.30
2019-01-25T11:15:34.596Z,45.93
2019-01-25T11:18:03.948Z,41.20
2019-01-25T11:20:33.193Z,37.67
2019-01-25T11:23:02.555Z,42.30
2019-01-25T11:25:37.394Z,39.87
2019-01-25T11:28:06.730Z,37.00
2019-01-25T11:30:36.169Z,40.37
2019-01-25T11:33:05.878Z,40.00
2019-01-25T11:35:34.881Z,38.90
2019-01-25T11:38:04.593Z,39.80
2019-01-25T11:40:39.654Z,41.87
2019-01-25T11:43:09.284Z,38.77
2019-01-25T11:45:38.874Z,38.10
2019-01-25T11:48:11.141Z,44.03
2019-01-25T11:50:40.490Z,40.73
2019-01-25T11:53:09.852Z,37.77
2019-01-25T11:55:39.221Z,38.03
2019-01-25T11:58:08.553Z,37.70
2019-01-25T12:00:39.848Z,36.83
2019-01-25T12:03:09.185Z,38.10
2019-01-25T12:05:38.525Z,35.90
2019-01-25T12:08:07.963Z,37.13
2019-01-25T12:10:37.293Z,34.20
2019-01-25T12:13:06.621Z,32.50
2019-01-25T12:15:35.985Z,36.53
2019-01-25T12:18:05.589Z,37.10
2019-01-25T12:20:34.926Z,35.77
2019-01-25T12:23:04.518Z,36.90
2019-01-25T12:25:34.020Z,31.40
2019-01-25T12:28:05.311Z,37.97
2019-01-25T12:30:38.140Z,35.93
2019-01-25T12:33:08.434Z,37.33
2019-01-25T12:35:39.722Z,35.77
2019-01-25T12:38:08.754Z,31.80
2019-01-25T12:40:42.204Z,35.03
2019-01-25T12:43:09.243Z,38.00
2019-01-25T12:45:38.673Z,40.37
2019-01-25T12:48:08.162Z,40.97
2019-01-25T12:50:48.853Z,39.87
2019-01-25T12:53:15.429Z,40.43
2019-01-25T12:55:44.849Z,37.50
2019-01-25T12:58:14.209Z,38.57
2019-01-25T13:00:43.553Z,36.80
2019-01-25T13:03:12.562Z,40.03
2019-01-25T13:05:43.222Z,36.77
2019-01-25T13:08:12.711Z,40.33
2019-01-25T13:10:41.715Z,41.57
2019-01-25T13:13:10.993Z,42.20
2019-01-25T13:15:40.416Z,45.03
2019-01-25T13:18:09.418Z,47.20
2019-01-25T13:20:39.620Z,36.07
2019-01-25T13:23:09.453Z,38.07
2019-01-25T13:25:38.366Z,41.43
2019-01-25T13:28:07.651Z,41.27
2019-01-25T13:30:36.657Z,42.73
2019-01-25T13:33:05.965Z,44.23
2019-01-25T13:35:35.084Z,40.20
2019-01-25T13:38:05.028Z,35.37
2019-01-25T13:40:34.434Z,46.73
2019-01-25T13:43:03.737Z,46.53
2019-01-25T13:45:32.652Z,47.27
2019-01-25T13:48:01.561Z,48.07
2019-01-25T13:50:30.504Z,48.23
2019-01-25T13:52:59.424Z,40.60
2019-01-25T13:55:28.338Z,43.83
2019-01-25T13:57:57.287Z,40.90
2019-01-25T14:00:27.252Z,48.13
2019-01-25T14:02:56.346Z,43.77
2019-01-25T14:05:25.804Z,41.73
2019-01-25T14:07:56.680Z,47.80
2019-01-25T14:10:28.774Z,42.40
2019-01-25T14:12:58.312Z,45.40
2019-01-25T14:15:29.657Z,45.93
2019-01-25T14:17:58.735Z,46.77
2019-01-25T14:20:32.509Z,46.00
2019-01-25T14:23:01.923Z,44.30
2019-01-25T14:25:30.958Z,46.20
2019-01-25T14:28:00.291Z,55.50
2019-01-25T14:30:35.443Z,48.90
2019-01-25T14:33:06.074Z,48.53
2019-01-25T14:35:35.825Z,48.97
2019-01-25T14:38:06.809Z,60.30
2019-01-25T14:40:36.238Z,43.87
2019-01-25T14:43:05.740Z,48.77
2019-01-25T14:45:34.890Z,48.17
2019-01-25T14:48:05.761Z,49.10
2019-01-25T14:50:34.843Z,52.53
2019-01-25T14:53:08.880Z,49.27
2019-01-25T14:55:37.790Z,46.83
2019-01-25T14:58:06.805Z,47.67
2019-01-25T15:00:36.059Z,51.23
2019-01-25T15:03:05.231Z,51.33
2019-01-25T15:05:34.642Z,50.97
2019-01-25T15:08:04.037Z,54.97
2019-01-25T15:10:33.117Z,49.90
2019-01-25T15:13:02.405Z,53.47
2019-01-25T15:15:31.750Z,55.57
2019-01-25T15:18:00.824Z,60.97
2019-01-25T15:20:30.426Z,57.47
2019-01-25T15:22:59.761Z,62.83
2019-01-25T15:25:29.097Z,58.53
2019-01-25T15:27:58.133Z,62.80
2019-01-25T15:30:28.324Z,62.90
2019-01-25T15:32:57.565Z,64.83
2019-01-25T15:35:26.592Z,63.07
2019-01-25T15:37:55.501Z,59.33
2019-01-25T15:40:24.754Z,54.23
2019-01-25T15:42:53.786Z,67.07
2019-01-25T15:45:23.473Z,60.97
2019-01-25T15:47:52.809Z,64.03
2019-01-25T15:50:27.637Z,62.13
2019-01-25T15:52:56.636Z,66.87
2019-01-25T15:55:25.713Z,61.30
2019-01-25T15:57:54.985Z,87.87
2019-01-25T16:00:26.298Z,69.53
2019-01-25T16:02:55.637Z,69.57
2019-01-25T16:05:25.582Z,82.53
2019-01-25T16:07:54.927Z,76.50
2019-01-25T16:10:24.277Z,71.40
2019-01-25T16:12:53.716Z,65.63
2019-01-25T16:15:28.248Z,60.30
2019-01-25T16:17:57.665Z,63.23
2019-01-25T16:20:27.022Z,66.87
2019-01-25T16:22:56.598Z,66.17
2019-01-25T16:25:26.668Z,71.30
2019-01-25T16:27:55.958Z,76.07
2019-01-25T16:30:26.109Z,78.23
2019-01-25T16:32:55.021Z,76.33
2019-01-25T16:35:24.386Z,87.65
2019-01-25T16:37:53.719Z,80.90
2019-01-25T16:40:23.860Z,80.33
2019-01-25T16:42:52.841Z,79.57
2019-01-25T16:45:23.026Z,72.67
2019-01-25T16:47:52.005Z,77.07
2019-01-25T16:50:23.914Z,81.60
2019-01-25T16:52:51.560Z,88.50
2019-01-25T16:55:20.809Z,95.00
2019-01-25T16:57:50.165Z,80.00
2019-01-25T17:00:23.454Z,98.60
2019-01-25T17:02:57.573Z,83.63
2019-01-25T17:05:26.498Z,87.47
2019-01-25T17:07:55.744Z,82.70
2019-01-25T17:10:24.787Z,84.83
2019-01-25T17:12:53.698Z,74.00
2019-01-25T17:15:23.085Z,79.00
2019-01-25T17:17:52.111Z,83.90
2019-01-25T17:20:27.263Z,84.73
2019-01-25T17:23:01.138Z,72.50
2019-01-25T17:25:30.050Z,78.30
2019-01-25T17:27:58.967Z,80.33
2019-01-25T17:30:31.734Z,66.53
2019-01-25T17:33:00.914Z,85.17
2019-01-25T17:35:30.193Z,77.93
2019-01-25T17:37:59.196Z,75.20
2019-01-25T17:40:35.263Z,92.70
2019-01-25T17:43:04.672Z,93.73
2019-01-25T17:45:33.585Z,79.77
2019-01-25T17:48:02.826Z,80.20
2019-01-25T17:50:31.922Z,75.80
2019-01-25T17:53:00.838Z,70.37
2019-01-25T17:55:29.750Z,71.60
2019-01-25T17:57:58.689Z,72.83
2019-01-25T18:00:32.714Z,80.70
2019-01-25T18:03:01.961Z,72.57
2019-01-25T18:05:31.004Z,70.60
2019-01-25T18:07:59.917Z,68.60
2019-01-25T18:10:28.832Z,69.50
2019-01-25T18:12:57.774Z,70.20
2019-01-25T18:15:27.024Z,63.90
2019-01-25T18:17:56.034Z,59.07
2019-01-25T18:20:24.973Z,60.50
2019-01-25T18:22:53.894Z,59.20
2019-01-25T18:25:24.357Z,53.37
2019-01-25T18:27:54.841Z,59.97
2019-01-25T18:30:26.066Z,56.67
2019-01-25T18:32:54.976Z,59.43
2019-01-25T18:35:23.925Z,57.33
2019-01-25T18:37:52.918Z,53.80
2019-01-25T18:40:21.830Z,56.07
2019-01-25T18:42:50.781Z,65.97
2019-01-25T18:45:20.022Z,49.97
2019-01-25T18:47:49.040Z,59.53
2019-01-25T18:50:17.982Z,63.47
2019-01-25T18:52:46.894Z,64.07
2019-01-25T18:55:19.190Z,69.10
2019-01-25T18:57:48.292Z,62.33
2019-01-25T19:00:18.086Z,64.87
2019-01-25T19:02:47.066Z,65.80
2019-01-25T19:05:16.429Z,71.23
2019-01-25T19:07:45.434Z,67.90
2019-01-25T19:10:20.005Z,64.77
2019-01-25T19:12:49.104Z,69.83
2019-01-25T19:15:21.592Z,71.30
2019-01-25T19:17:50.561Z,72.80
2019-01-25T19:20:21.520Z,67.40
2019-01-25T19:22:50.606Z,71.80
2019-01-25T19:25:19.589Z,69.43
2019-01-25T19:27:48.533Z,69.77
2019-01-25T19:30:23.319Z,68.33
2019-01-25T19:32:52.331Z,72.10
2019-01-25T19:35:21.362Z,67.20
2019-01-25T19:37:50.269Z,73.93
2019-01-25T19:40:20.322Z,72.83
2019-01-25T19:42:49.313Z,70.90
2019-01-25T19:45:18.401Z,75.07
2019-01-25T19:47:47.328Z,75.07
2019-01-25T19:50:17.800Z,70.87
2019-01-25T19:52:47.048Z,66.53
2019-01-25T19:55:17.590Z,84.63
2019-01-25T19:57:46.533Z,76.80
2019-01-25T20:00:25.957Z,71.37
2019-01-25T20:02:54.915Z,75.80
2019-01-25T20:05:26.860Z,72.83
2019-01-25T20:07:55.937Z,82.80
2019-01-25T20:10:24.894Z,90.57
2019-01-25T20:12:54.341Z,87.67
2019-01-25T20:15:26.463Z,84.63
2019-01-25T20:17:55.408Z,79.10
2019-01-25T20:20:47.795Z,90.37
2019-01-25T20:23:16.738Z,83.63
2019-01-25T20:25:45.990Z,89.00
2019-01-25T20:28:14.997Z,82.47
2019-01-25T20:30:49.549Z,87.57
2019-01-25T20:33:14.918Z,89.80
2019-01-25T20:35:44.394Z,85.30
2019-01-25T20:38:13.432Z,93.77
2019-01-25T20:40:42.745Z,92.07
2019-01-25T20:43:13.037Z,88.53
2019-01-25T20:45:42.477Z,103.00
2019-01-25T20:48:11.709Z,90.30
2019-01-25T20:50:40.712Z,97.03
2019-01-25T20:53:12.434Z,89.63
2019-01-25T20:55:41.802Z,88.63
2019-01-25T20:58:10.786Z,92.80
2019-01-25T21:00:40.179Z,90.93
2019-01-25T21:03:10.169Z,87.63
2019-01-25T21:05:39.076Z,85.83
2019-01-25T21:08:08.094Z,92.87
2019-01-25T21:10:37.070Z,87.10
2019-01-25T21:13:06.462Z,99.67
2019-01-25T21:15:35.997Z,98.23
2019-01-25T21:18:05.373Z,89.70
2019-01-25T21:20:42.533Z,88.23
2019-01-25T21:23:11.606Z,93.90
2019-01-25T21:25:40.606Z,90.57
2019-01-25T21:28:10.371Z,91.37
2019-01-25T21:30:39.368Z,85.83
2019-01-25T21:33:08.277Z,91.23
2019-01-25T21:35:37.217Z,88.43
2019-01-25T21:38:06.205Z,95.13
2019-01-25T21:40:35.109Z,94.33
2019-01-25T21:43:05.129Z,92.60
2019-01-25T21:45:34.710Z,92.73
2019-01-25T21:48:04.754Z,99.20
2019-01-25T21:50:36.916Z,94.93
2019-01-25T21:53:06.904Z,96.97
2019-01-25T21:55:36.237Z,96.50
2019-01-25T21:58:05.816Z,100.87
2019-01-25T22:00:35.402Z,91.27
2019-01-25T22:03:06.092Z,100.07
2019-01-25T22:05:35.533Z,90.13
2019-01-25T22:08:05.108Z,90.87
2019-01-25T22:10:37.183Z,96.83
2019-01-25T22:13:06.521Z,99.93
2019-01-25T22:15:35.899Z,96.42
2019-01-25T22:18:06.173Z,85.43
2019-01-25T22:20:35.542Z,77.67
2019-01-25T22:23:05.415Z,78.90
2019-01-25T22:25:34.874Z,89.37
2019-01-25T22:28:04.411Z,92.27
2019-01-25T22:30:33.809Z,87.03
2019-01-25T22:33:03.151Z,77.70
2019-01-25T22:35:32.517Z,86.67
2019-01-25T22:38:01.857Z,89.17
2019-01-25T22:40:31.605Z,99.00
2019-01-25T22:43:01.004Z,73.37
2019-01-25T22:45:30.572Z,86.77
2019-01-25T22:48:00.455Z,93.03
2019-01-25T22:50:32.073Z,92.50
2019-01-25T22:53:01.409Z,88.30
2019-01-25T22:55:30.815Z,96.50
2019-01-25T22:58:00.185Z,95.47
2019-01-25T23:00:54.609Z,103.53
2019-01-25T23:03:32.673Z,96.93
2019-01-25T23:06:05.081Z,97.40
2019-01-25T23:08:34.421Z,92.23
2019-01-25T23:11:03.961Z,93.53
2019-01-25T23:13:33.297Z,96.30
2019-01-25T23:16:06.406Z,93.93
2019-01-25T23:18:33.700Z,97.97
2019-01-25T23:21:03.039Z,79.60
2019-01-25T23:23:32.384Z,113.80
2019-01-25T23:26:01.749Z,108.33
2019-01-25T23:28:31.093Z,97.80
2019-01-25T23:31:00.416Z,98.63
2019-01-25T23:33:29.790Z,97.20
2019-01-25T23:35:59.148Z,91.97
2019-01-25T23:38:28.543Z,97.90
2019-01-25T23:40:57.906Z,95.63
2019-01-25T23:43:27.243Z,92.23
2019-01-25T23:45:56.582Z,91.17
2019-01-25T23:48:25.934Z,89.33
2019-01-25T23:50:55.286Z,103.10
2019-01-25T23:53:24.634Z,101.13
2019-01-25T23:55:54.010Z,109.33
2019-01-25T23:58:23.341Z,110.33
